Airfield :
LOGIN :

Register | Disclaimer

   EN    FR    IT 

 










Legend :    VFR   Marginal VFR   IFR   Intensive IFR   Very Intensive IFR
Visi :
Ceiling :
>= 8 km
>= 3000ft
5 to 8 km
1000 to 3000 ft
1500m to 5 km
500 to 1000 ft
800 to 1500m
200 to 500 ft
< 800m
< 200 ft
Symbols :   Thunderstorms  Fog  Heavy snow  Heavy precipitations  Wind > 20 kt
SIGMETs :     Misc.  Thunderstorms  Icing  Turbulence  Mountain Waves  Volcanic Ashes






- Airport Elevation : 13 ft
- IATA code : SNR


LFRZ - St-Nazaire

CURRENT METAR :
  • 181230Z AUTO 05011KT 010V090 9999 FEW044 14/04 Q1024 NOSIG

EXPIRED METARs :
  • 181200Z AUTO 02009KT 330V080 9999 FEW043 13/03 Q1024 NOSIG
  • 181130Z AUTO 05010KT 010V090 9999 FEW040 13/05 Q1024 NOSIG
  • 181100Z AUTO 03010KT 320V060 CAVOK 13/04 Q1024 NOSIG
  • 181030Z AUTO 02009KT 340V080 CAVOK 13/05 Q1023 NOSIG
  • 181000Z AUTO 01011KT 340V050 CAVOK 12/04 Q1023 NOSIG
  • 180930Z AUTO 04010KT 010V070 9999 FEW028 12/05 Q1023 NOSIG
  • 180900Z AUTO 02010KT 350V070 9999 SCT024 12/06 Q1023 NOSIG
  • 180830Z AUTO 03010KT 350V060 9999 SCT024 11/06 Q1022 NOSIG

TAF TAF LFRZ
Valid from the 18 at 12:00 until the 19 at 12:00 UTC


181100Z 1812/1912 03010KT 9999 SCT040
BECMG 1819/1821 VRB03KT
PROB30
TEMPO 1902/1908 2000 BR



MET'MAP, your aeronautical weather chart ! - Copyright ORBIFLY December 2007 - Disclaimer

ORBIFLY MET'MAP TEAM :

Programming & Development : Alexandra Zaïnal
Original concept : Baudouin d'Aumeries
Technical & hardware support : Manuel Goepfert
Assistance : Marc-Olivier Méhu




SOURCES & CREDITS :

   NOAA